createdAt,value
2019-02-10T00:05:02.905Z,59.53
2019-02-10T00:10:10.432Z,59.75
2019-02-10T00:15:18.635Z,59.29
2019-02-10T00:20:24.692Z,59.43
2019-02-10T00:25:30.420Z,59.70
2019-02-10T00:30:40.286Z,59.90
2019-02-10T00:35:46.085Z,59.29
2019-02-10T00:40:54.704Z,59.51
2019-02-10T00:46:00.569Z,59.64
2019-02-10T00:51:06.668Z,59.26
2019-02-10T00:56:14.907Z,59.16
2019-02-10T01:01:25.800Z,59.33
2019-02-10T01:06:41.182Z,59.62
2019-02-10T01:11:41.586Z,59.12
2019-02-10T01:16:47.398Z,59.33
2019-02-10T01:21:53.798Z,58.77
2019-02-10T01:27:02.580Z,58.88
2019-02-10T01:32:10.029Z,59.32
2019-02-10T01:37:19.227Z,58.95
2019-02-10T01:42:27.912Z,59.13
2019-02-10T01:47:33.613Z,59.68
2019-02-10T01:52:41.779Z,59.47
2019-02-10T01:57:47.530Z,59.62
2019-02-10T02:02:53.296Z,59.86
2019-02-10T02:07:59.898Z,59.77
2019-02-10T02:13:09.759Z,58.89
2019-02-10T02:18:15.500Z,59.76
2019-02-10T02:23:21.755Z,59.51
2019-02-10T02:28:28.769Z,59.35
2019-02-10T02:33:34.537Z,58.70
2019-02-10T02:38:44.470Z,58.68
2019-02-10T02:43:52.186Z,58.95
2019-02-10T02:49:00.890Z,59.57
2019-02-10T02:54:08.209Z,59.08
2019-02-10T02:59:13.911Z,59.57
2019-02-10T03:04:19.524Z,59.09
2019-02-10T03:09:25.617Z,59.09
2019-02-10T03:14:32.582Z,59.50
2019-02-10T03:19:39.823Z,58.89
2019-02-10T03:24:46.002Z,58.79
2019-02-10T03:29:51.598Z,58.76
2019-02-10T03:34:57.301Z,58.32
2019-02-10T03:40:03.312Z,58.64
2019-02-10T03:45:09.715Z,58.11
2019-02-10T03:50:18.412Z,58.04
2019-02-10T03:55:28.827Z,58.22
2019-02-10T04:00:38.836Z,56.79
2019-02-10T04:05:44.472Z,57.43
2019-02-10T04:10:51.800Z,57.25
2019-02-10T04:15:59.484Z,57.46
2019-02-10T04:21:06.836Z,58.03
2019-02-10T04:26:13.421Z,57.35
2019-02-10T04:31:19.135Z,57.99
2019-02-10T04:36:25.150Z,58.53
2019-02-10T04:41:30.700Z,58.06
2019-02-10T04:46:36.938Z,58.18
2019-02-10T04:51:50.305Z,57.69
2019-02-10T04:56:58.851Z,57.56
2019-02-10T05:02:06.303Z,58.30
2019-02-10T05:07:11.959Z,58.70
2019-02-10T05:12:17.792Z,58.70
2019-02-10T05:17:23.456Z,59.71
2019-02-10T05:22:30.151Z,59.71
2019-02-10T05:27:36.300Z,59.52
2019-02-10T05:32:42.437Z,59.99
2019-02-10T05:37:50.558Z,59.99
2019-02-10T05:42:59.638Z,59.67
2019-02-10T05:48:07.645Z,60.10
2019-02-10T05:53:13.287Z,59.65
2019-02-10T05:58:21.064Z,59.70
2019-02-10T06:03:30.692Z,60.52
2019-02-10T06:08:41.462Z,60.62
2019-02-10T06:13:47.523Z,59.82
2019-02-10T06:18:53.369Z,60.91
2019-02-10T06:23:59.779Z,60.51
2019-02-10T06:29:08.054Z,61.20
2019-02-10T06:34:21.237Z,60.06
2019-02-10T06:39:28.069Z,59.13
2019-02-10T06:44:33.843Z,59.08
2019-02-10T06:49:40.097Z,58.11
2019-02-10T06:54:54.767Z,57.62
2019-02-10T07:00:22.803Z,57.46
2019-02-10T07:05:26.786Z,56.97
2019-02-10T07:10:35.237Z,58.00
2019-02-10T07:16:16.090Z,58.08
2019-02-10T07:21:26.470Z,56.59
2019-02-10T07:27:16.985Z,55.51
2019-02-10T07:32:34.812Z,55.60
2019-02-10T07:37:53.940Z,55.65
2019-02-10T07:43:55.944Z,56.30
2019-02-10T07:49:47.296Z,55.04
2019-02-10T07:55:17.143Z,55.35
2019-02-10T08:01:04.700Z,56.04
2019-02-10T08:06:42.647Z,55.38
2019-02-10T08:12:35.941Z,55.62
2019-02-10T08:18:21.603Z,56.21
2019-02-10T08:23:59.550Z,55.97
2019-02-10T08:29:43.790Z,55.66
2019-02-10T08:35:23.106Z,56.29
2019-02-10T08:41:08.567Z,55.84
2019-02-10T08:46:27.420Z,55.35
2019-02-10T08:52:13.047Z,54.48
2019-02-10T08:57:22.085Z,53.76
2019-02-10T09:02:32.663Z,53.67
2019-02-10T09:07:38.720Z,53.12
2019-02-10T09:12:45.969Z,52.22
2019-02-10T09:17:55.909Z,52.26
2019-02-10T09:23:03.722Z,52.72
2019-02-10T09:28:14.036Z,51.67
2019-02-10T09:38:56.803Z,51.36
2019-02-10T09:44:08.240Z,51.57
2019-02-10T09:49:21.012Z,51.36
2019-02-10T09:54:34.566Z,51.59
2019-02-10T09:59:48.921Z,51.45
2019-02-10T10:05:13.175Z,51.31
2019-02-10T10:10:22.067Z,51.19
2019-02-10T10:15:36.607Z,51.15
2019-02-10T10:20:44.537Z,50.65
2019-02-10T10:25:58.185Z,50.76
2019-02-10T10:31:11.952Z,50.36
2019-02-10T10:36:19.105Z,49.90
2019-02-10T10:41:49.048Z,50.45
2019-02-10T10:47:13.520Z,49.97
2019-02-10T10:52:25.188Z,48.54
2019-02-10T10:57:40.129Z,48.85
2019-02-10T11:02:50.614Z,48.12
2019-02-10T11:08:02.879Z,48.64
2019-02-10T11:18:36.038Z,49.01
2019-02-10T11:23:54.227Z,49.72
2019-02-10T11:29:06.931Z,49.82
2019-02-10T11:34:17.980Z,49.78
2019-02-10T11:39:29.615Z,49.47
2019-02-10T11:44:53.185Z,49.61
2019-02-10T11:50:08.735Z,49.43
2019-02-10T11:55:22.190Z,50.27
2019-02-10T12:00:33.502Z,50.89
2019-02-10T12:06:00.577Z,51.07
2019-02-10T12:11:12.268Z,51.25
2019-02-10T12:16:36.286Z,51.84
2019-02-10T12:27:02.298Z,52.11
2019-02-10T12:32:18.599Z,51.84
2019-02-10T12:37:32.584Z,52.63
2019-02-10T12:42:35.829Z,52.69
2019-02-10T12:47:45.950Z,52.97
2019-02-10T12:53:00.335Z,52.00
2019-02-10T12:58:09.629Z,52.26
2019-02-10T13:03:23.551Z,52.18
2019-02-10T13:08:29.788Z,50.72
2019-02-10T13:13:43.420Z,51.14
2019-02-10T13:18:55.027Z,50.54
2019-02-10T13:24:06.405Z,49.97
2019-02-10T13:29:19.749Z,49.69
2019-02-10T13:34:29.030Z,49.25
2019-02-10T13:39:38.210Z,48.87
2019-02-10T13:44:44.366Z,48.86
2019-02-10T13:49:55.590Z,48.22
2019-02-10T13:55:01.651Z,47.58
2019-02-10T14:00:10.700Z,47.91
2019-02-10T14:05:25.085Z,47.62
2019-02-10T14:10:37.006Z,47.49
2019-02-10T14:15:52.928Z,47.36
2019-02-10T14:21:18.195Z,47.41
2019-02-10T14:26:34.042Z,46.99
2019-02-10T14:31:44.750Z,46.66
2019-02-10T14:36:56.177Z,47.67
2019-02-10T14:42:22.154Z,48.06
2019-02-10T14:47:37.011Z,48.31
2019-02-10T14:53:16.680Z,49.15
2019-02-10T14:58:24.873Z,46.79
2019-02-10T15:03:44.427Z,47.15
2019-02-10T15:08:55.485Z,46.86
2019-02-10T15:14:24.082Z,46.47
2019-02-10T15:19:41.939Z,46.19
2019-02-10T15:25:10.287Z,45.96
2019-02-10T15:30:23.895Z,46.92
2019-02-10T15:35:48.025Z,46.56
2019-02-10T15:40:58.248Z,47.24
2019-02-10T15:46:09.250Z,48.34
2019-02-10T15:51:28.781Z,49.15
2019-02-10T15:56:45.050Z,48.54
2019-02-10T16:02:00.996Z,48.71
2019-02-10T16:13:07.095Z,49.21
2019-02-10T16:18:20.191Z,49.07
2019-02-10T16:23:29.963Z,48.70
2019-02-10T16:28:39.129Z,49.91
2019-02-10T16:33:53.190Z,49.50
2019-02-10T16:39:13.156Z,49.22
2019-02-10T16:44:33.802Z,48.96
2019-02-10T16:49:46.114Z,49.53
2019-02-10T16:54:55.567Z,49.02
2019-02-10T17:00:06.818Z,49.43
2019-02-10T17:05:28.194Z,48.55
2019-02-10T17:10:37.141Z,48.51
2019-02-10T17:16:05.231Z,48.91
2019-02-10T17:21:15.834Z,48.97
2019-02-10T17:26:32.561Z,48.55
2019-02-10T17:31:56.984Z,48.46
2019-02-10T17:37:09.913Z,48.42
2019-02-10T17:42:32.274Z,47.73
2019-02-10T17:47:44.966Z,48.11
2019-02-10T17:52:59.682Z,48.49
2019-02-10T17:58:15.473Z,49.19
2019-02-10T18:03:25.012Z,49.36
2019-02-10T18:08:37.993Z,49.97
2019-02-10T18:14:02.351Z,50.31
2019-02-10T18:19:29.654Z,51.68
2019-02-10T18:25:05.855Z,52.64
2019-02-10T18:30:51.450Z,53.16
2019-02-10T18:36:28.418Z,53.08
2019-02-10T18:42:07.123Z,54.57
2019-02-10T18:47:44.291Z,55.08
2019-02-10T18:53:22.535Z,54.69
2019-02-10T18:59:05.062Z,54.48
2019-02-10T19:04:32.571Z,55.21
2019-02-10T19:10:15.351Z,55.58
2019-02-10T19:15:59.944Z,56.16
2019-02-10T19:21:44.670Z,56.86
2019-02-10T19:27:29.777Z,56.34
2019-02-10T19:33:21.663Z,57.09
2019-02-10T19:38:57.998Z,57.11
2019-02-10T19:44:45.092Z,57.37
2019-02-10T19:50:27.946Z,57.63
2019-02-10T19:56:11.654Z,57.66
2019-02-10T20:02:05.239Z,57.89
2019-02-10T20:07:31.013Z,58.11
2019-02-10T20:13:00.686Z,57.74
2019-02-10T20:18:19.679Z,58.00
2019-02-10T20:24:04.103Z,57.35
2019-02-10T20:29:59.376Z,56.41
2019-02-10T20:35:26.747Z,57.03
2019-02-10T20:41:03.531Z,57.44
2019-02-10T20:46:37.232Z,57.38
2019-02-10T20:52:04.481Z,57.28
2019-02-10T20:57:42.624Z,57.29
2019-02-10T21:03:06.636Z,56.66
2019-02-10T21:08:32.208Z,56.60
2019-02-10T21:14:01.259Z,56.56
2019-02-10T21:19:19.006Z,56.44
2019-02-10T21:24:57.379Z,56.69
2019-02-10T21:30:15.984Z,56.76
2019-02-10T21:35:40.626Z,56.83
2019-02-10T21:41:11.356Z,56.61
2019-02-10T21:46:36.474Z,56.50
2019-02-10T21:51:45.981Z,56.10
2019-02-10T21:57:00.059Z,56.14
2019-02-10T22:02:11.337Z,55.81
2019-02-10T22:07:21.443Z,56.71
2019-02-10T22:12:37.109Z,56.95
2019-02-10T22:17:41.406Z,57.59
2019-02-10T22:22:47.219Z,58.33
2019-02-10T22:27:53.107Z,58.01
2019-02-10T22:33:00.440Z,57.72
2019-02-10T22:38:08.814Z,57.66
2019-02-10T22:43:14.797Z,57.41
2019-02-10T22:48:20.653Z,57.38
2019-02-10T22:53:30.723Z,57.86
2019-02-10T22:58:43.780Z,57.78
2019-02-10T23:03:49.684Z,57.93
2019-02-10T23:08:59.656Z,57.86
2019-02-10T23:14:06.156Z,58.40
2019-02-10T23:19:13.167Z,58.08
2019-02-10T23:24:18.955Z,58.35
2019-02-10T23:29:37.300Z,58.12
2019-02-10T23:34:48.557Z,57.79
2019-02-10T23:39:59.281Z,57.85
2019-02-10T23:45:06.507Z,57.69
2019-02-10T23:56:36.051Z,57.10
